Time;durP1;ratioP1;P1;durP2;ratioP2;P2;SDS_P1;SDS_P2;PMS_P1;PMS_P2;Temp;Humidity;BMP_temperature;BMP_pressure;BME280_temperature;BME280_humidity;BME280_pressure;Samples;Min_cycle;Max_cycle;Signal;HPM_P1;HPM_P2
2021/05/09 00:00:53;;;;;;;6.43;5.70;;;12.10;91.00;;;;;;5097656;28;20076;-61
2021/05/09 00:03:19;;;;;;;6.53;5.18;;;12.00;91.10;;;;;;5095308;27;20076;-61
2021/05/09 00:05:46;;;;;;;7.07;5.75;;;12.10;90.80;;;;;;5094195;28;20064;-61
2021/05/09 00:08:13;;;;;;;6.25;4.90;;;12.00;90.70;;;;;;5093614;28;20098;-61
2021/05/09 00:10:40;;;;;;;5.97;5.38;;;12.10;90.70;;;;;;5095259;28;20132;-61
2021/05/09 00:13:09;;;;;;;6.63;5.05;;;14.00;91.20;;;;;;5096940;28;20085;-61
2021/05/09 00:15:37;;;;;;;6.38;4.78;;;13.00;90.80;;;;;;5097140;28;20087;-61
2021/05/09 00:18:04;;;;;;;7.22;5.10;;;12.30;90.60;;;;;;5094749;28;20101;-62
2021/05/09 00:20:31;;;;;;;8.07;5.15;;;12.40;90.60;;;;;;5095265;28;20091;-60
2021/05/09 00:22:57;;;;;;;8.43;4.90;;;12.40;90.50;;;;;;5095747;28;20036;-60
2021/05/09 00:25:23;;;;;;;7.43;4.57;;;12.50;90.30;;;;;;5097428;28;20088;-61
2021/05/09 00:27:50;;;;;;;8.55;5.25;;;12.60;90.40;;;;;;5098086;27;20092;-60
2021/05/09 00:30:19;;;;;;;7.60;4.97;;;13.20;90.20;;;;;;5096927;28;20450;-61
2021/05/09 00:32:45;;;;;;;8.55;5.30;;;12.70;90.00;;;;;;5074580;27;20091;-61
2021/05/09 00:35:12;;;;;;;6.15;4.88;;;12.70;90.00;;;;;;5097468;28;20536;-61
2021/05/09 00:37:38;;;;;;;7.10;4.85;;;13.20;90.00;;;;;;5093085;28;20547;-61
2021/05/09 00:40:05;;;;;;;5.05;4.28;;;12.80;89.90;;;;;;5095968;28;20119;-61
2021/05/09 00:42:31;;;;;;;8.43;4.50;;;12.90;89.80;;;;;;5094897;28;20143;-61
2021/05/09 00:44:58;;;;;;;6.78;4.57;;;12.90;89.50;;;;;;5074979;28;20666;-61
2021/05/09 00:47:24;;;;;;;4.68;4.28;;;12.50;89.00;;;;;;5095045;28;20190;-61
2021/05/09 00:49:50;;;;;;;5.95;4.22;;;12.60;88.90;;;;;;5097445;28;20119;-61
2021/05/09 00:52:18;;;;;;;5.57;4.70;;;12.20;88.20;;;;;;5095875;28;20176;-61
2021/05/09 00:55:00;;;;;;;7.13;4.30;;;12.90;89.60;;;;;;5094062;28;20089;-61
2021/05/09 00:57:31;;;;;;;5.85;4.10;;;13.30;89.30;;;;;;5095869;27;20829;-61
2021/05/09 01:00:07;;;;;;;7.28;4.47;;;13.10;88.20;;;;;;5094128;28;20131;-61
2021/05/09 01:02:34;;;;;;;6.38;4.47;;;13.00;88.50;;;;;;5095366;27;20103;-61
2021/05/09 01:05:00;;;;;;;5.60;4.30;;;13.00;88.20;;;;;;5098655;27;20088;-61
2021/05/09 01:07:27;;;;;;;6.05;4.50;;;14.70;88.60;;;;;;5097932;28;20095;-60
2021/05/09 01:09:54;;;;;;;6.28;4.15;;;13.00;88.00;;;;;;5095717;28;20174;-60
2021/05/09 01:12:20;;;;;;;8.13;4.60;;;14.10;88.20;;;;;;5097293;28;20118;-60
2021/05/09 01:14:46;;;;;;;6.88;4.35;;;13.00;87.70;;;;;;5096496;28;20589;-60
2021/05/09 01:17:12;;;;;;;7.30;5.00;;;13.00;88.00;;;;;;5094806;28;20173;-60
2021/05/09 01:19:39;;;;;;;6.07;4.18;;;13.70;87.80;;;;;;5077490;28;20166;-61
2021/05/09 01:22:12;;;;;;;5.55;4.47;;;13.20;88.20;;;;;;5093606;28;20553;-60
2021/05/09 01:24:39;;;;;;;4.78;4.00;;;13.30;88.00;;;;;;5080114;28;20094;-60
2021/05/09 01:27:06;;;;;;;5.72;4.05;;;12.90;87.60;;;;;;5096772;28;20439;-60
2021/05/09 01:29:34;;;;;;;6.15;4.07;;;12.90;87.50;;;;;;5094823;28;20634;-61
2021/05/09 01:32:03;;;;;;;6.30;4.30;;;12.90;88.00;;;;;;5090986;28;20197;-60
2021/05/09 01:34:34;;;;;;;5.35;3.97;;;12.90;89.40;;;;;;5092993;28;20083;-61
2021/05/09 01:37:02;;;;;;;;;;;12.80;88.70;;;;;;5097577;28;20549;-60
2021/05/09 01:39:35;;;;;;;4.38;3.90;;;12.50;88.00;;;;;;5095499;28;19993;-60
2021/05/09 01:42:02;;;;;;;6.30;4.18;;;12.80;88.50;;;;;;5095568;28;20245;-60
2021/05/09 01:44:54;;;;;;;5.88;4.00;;;12.80;88.80;;;;;;5094377;28;20458;-60
2021/05/09 01:47:20;;;;;;;6.03;4.03;;;12.60;88.20;;;;;;5094377;28;20086;-60
2021/05/09 01:49:46;;;;;;;6.20;3.92;;;12.60;88.70;;;;;;5095252;28;20527;-60
2021/05/09 01:52:12;;;;;;;4.95;4.22;;;12.20;88.30;;;;;;5096140;28;20099;-60
2021/05/09 01:54:38;;;;;;;5.68;3.70;;;12.50;88.60;;;;;;5097449;28;20420;-60
2021/05/09 01:57:05;;;;;;;6.03;4.63;;;12.50;89.30;;;;;;5077962;28;20031;-60
2021/05/09 01:59:31;;;;;;;6.95;4.55;;;12.40;88.50;;;;;;5097697;28;20404;-61
2021/05/09 02:02:00;;;;;;;6.63;4.30;;;12.40;88.90;;;;;;5076933;27;20477;-60
2021/05/09 02:04:35;;;;;;;6.32;4.50;;;12.40;88.80;;;;;;5098072;28;20168;-61
2021/05/09 02:07:21;;;;;;;6.68;4.55;;;12.30;88.80;;;;;;5080190;27;20517;-61
2021/05/09 02:09:47;;;;;;;5.68;4.10;;;11.70;88.20;;;;;;5093421;27;20693;-61
2021/05/09 02:12:13;;;;;;;6.43;4.28;;;12.30;89.00;;;;;;5098173;27;20122;-60
2021/05/09 02:14:39;;;;;;;5.95;4.22;;;12.30;88.90;;;;;;5081974;28;20162;-60
2021/05/09 02:17:06;;;;;;;5.50;4.50;;;11.60;88.30;;;;;;5080315;28;20032;-60
2021/05/09 02:19:34;;;;;;;5.65;4.40;;;12.20;89.10;;;;;;5110938;27;20109;-60
2021/05/09 02:22:06;;;;;;;6.40;4.38;;;14.30;90.00;;;;;;5100358;28;20091;-60
2021/05/09 02:24:32;;;;;;;6.65;4.97;;;12.20;88.90;;;;;;5094956;27;20080;-60
2021/05/09 02:26:59;;;;;;;5.50;4.72;;;12.20;89.20;;;;;;5099887;28;20034;-60
2021/05/09 02:29:25;;;;;;;4.90;3.80;;;11.40;88.80;;;;;;5081572;28;20118;-60
2021/05/09 02:31:51;;;;;;;6.65;4.43;;;12.30;89.30;;;;;;5097145;27;20038;-62
2021/05/09 02:34:17;;;;;;;6.30;4.30;;;12.10;89.20;;;;;;5098981;27;20050;-62
2021/05/09 02:36:45;;;;;;;6.10;4.50;;;12.00;89.40;;;;;;5099165;28;20036;-59
2021/05/09 02:39:12;;;;;;;4.30;3.60;;;12.10;89.20;;;;;;5101850;28;20050;-60
2021/05/09 02:41:38;;;;;;;4.90;4.40;;;12.00;89.50;;;;;;5079088;28;20115;-60
2021/05/09 02:44:04;;;;;;;6.32;4.38;;;11.90;89.70;;;;;;5096790;28;20122;-60
2021/05/09 02:46:30;;;;;;;5.50;4.35;;;12.70;90.20;;;;;;5098504;27;20426;-60
2021/05/09 02:48:58;;;;;;;5.43;4.60;;;9.70;89.10;;;;;;5099177;28;20404;-60
2021/05/09 02:51:24;;;;;;;5.68;4.07;;;11.70;90.00;;;;;;5101511;28;20031;-60
2021/05/09 02:53:50;;;;;;;5.97;4.38;;;11.80;89.90;;;;;;5098792;27;20043;-60
2021/05/09 02:56:17;;;;;;;5.00;4.50;;;10.80;89.60;;;;;;5097875;27;20035;-61
2021/05/09 02:58:43;;;;;;;7.38;4.13;;;11.40;90.00;;;;;;5093940;27;20055;-60
2021/05/09 03:01:09;;;;;;;6.88;4.90;;;11.40;90.50;;;;;;5095809;27;20480;-61
2021/05/09 03:03:34;;;;;;;5.18;4.32;;;11.40;90.80;;;;;;5098705;28;20288;-61
2021/05/09 03:06:00;;;;;;;8.70;4.72;;;11.30;90.40;;;;;;5096352;27;20102;-61
2021/05/09 03:08:26;;;;;;;6.45;4.18;;;11.30;90.40;;;;;;5100475;28;20439;-60
2021/05/09 03:10:52;;;;;;;6.53;4.93;;;11.40;90.60;;;;;;5097942;27;20626;-60
2021/05/09 03:13:18;;;;;;;9.50;4.97;;;10.20;90.30;;;;;;5098171;28;20166;-60
2021/05/09 03:15:44;;;;;;;7.22;4.82;;;11.70;90.70;;;;;;5100035;28;20068;-61
2021/05/09 03:18:10;;;;;;;5.05;4.53;;;11.10;90.60;;;;;;5096428;28;20423;-61
2021/05/09 03:20:37;;;;;;;6.45;4.45;;;11.10;90.70;;;;;;5098510;28;20045;-61
2021/05/09 03:23:06;;;;;;;7.03;4.35;;;10.50;90.70;;;;;;5098148;27;23355;-61
2021/05/09 03:25:32;;;;;;;5.00;4.20;;;10.80;90.80;;;;;;5096234;27;20137;-62
2021/05/09 03:27:58;;;;;;;7.32;5.68;;;11.10;90.90;;;;;;5096659;27;20068;-62
2021/05/09 03:30:25;;;;;;;6.72;4.53;;;11.20;90.90;;;;;;5096558;28;20052;-60
2021/05/09 03:32:50;;;;;;;6.50;3.88;;;11.20;90.70;;;;;;5098616;28;20589;-60
2021/05/09 03:35:17;;;;;;;5.35;4.10;;;11.30;90.90;;;;;;5077340;28;20150;-61
2021/05/09 03:37:43;;;;;;;6.75;4.60;;;11.70;90.80;;;;;;5093012;28;20575;-61
2021/05/09 03:40:09;;;;;;;6.32;4.55;;;11.10;90.70;;;;;;5093430;28;20405;-60
2021/05/09 03:42:35;;;;;;;6.30;4.65;;;11.10;90.80;;;;;;5096690;27;20087;-61
2021/05/09 03:45:01;;;;;;;5.97;5.03;;;10.40;90.80;;;;;;5093223;27;20033;-62
2021/05/09 03:47:28;;;;;;;6.40;4.63;;;11.50;91.00;;;;;;5054337;28;20069;-61
2021/05/09 03:49:56;;;;;;;6.72;4.55;;;11.00;90.90;;;;;;5098674;28;20216;-62
2021/05/09 03:52:23;;;;;;;5.95;4.57;;;10.90;90.80;;;;;;5095702;27;20036;-62
2021/05/09 03:54:56;;;;;;;7.88;4.80;;;10.90;91.00;;;;;;5097846;28;20035;-62
2021/05/09 03:57:22;;;;;;;5.40;4.18;;;10.90;91.00;;;;;;5077201;28;20027;-61
2021/05/09 03:59:49;;;;;;;7.00;4.47;;;10.20;90.80;;;;;;5094368;27;20034;-62
2021/05/09 04:02:15;;;;;;;6.95;4.80;;;10.80;91.30;;;;;;5093848;28;20028;-62
2021/05/09 04:04:41;;;;;;;7.50;5.35;;;10.80;91.10;;;;;;5095706;28;20023;-59
2021/05/09 04:07:07;;;;;;;7.28;5.13;;;11.00;91.30;;;;;;5097292;27;20036;-61
2021/05/09 04:09:33;;;;;;;5.95;4.97;;;11.70;91.60;;;;;;5078140;28;20043;-60
2021/05/09 04:11:59;;;;;;;7.00;5.40;;;11.50;91.50;;;;;;5096684;27;20038;-60
2021/05/09 04:14:25;;;;;;;5.88;4.82;;;11.00;91.40;;;;;;5094066;27;20032;-61
2021/05/09 04:16:51;;;;;;;6.38;4.55;;;10.80;91.60;;;;;;5091090;27;20024;-61
2021/05/09 04:19:17;;;;;;;8.32;4.78;;;10.60;91.50;;;;;;5100031;28;20027;-61
2021/05/09 04:21:42;;;;;;;6.88;5.25;;;10.70;91.50;;;;;;5096655;27;20028;-61
2021/05/09 04:24:09;;;;;;;9.02;5.57;;;11.50;91.90;;;;;;5098891;28;20595;-61
2021/05/09 04:26:35;;;;;;;5.07;4.53;;;10.40;91.50;;;;;;5076449;28;20194;-61
2021/05/09 04:29:02;;;;;;;6.50;5.20;;;10.50;91.60;;;;;;5095067;27;20032;-61
2021/05/09 04:31:28;;;;;;;6.25;5.20;;;10.90;92.20;;;;;;5095884;27;20039;-61
2021/05/09 04:33:54;;;;;;;6.57;5.30;;;10.50;91.90;;;;;;5096374;28;20036;-61
2021/05/09 04:36:20;;;;;;;6.47;5.25;;;10.50;92.10;;;;;;5079738;28;20039;-61
2021/05/09 04:38:46;;;;;;;7.43;5.40;;;11.50;92.30;;;;;;5095558;28;21556;-61
2021/05/09 04:41:12;;;;;;;8.43;6.05;;;10.70;92.10;;;;;;5099082;28;20483;-61
2021/05/09 04:43:39;;;;;;;7.55;5.70;;;10.60;92.00;;;;;;5094837;28;20031;-61
2021/05/09 04:46:05;;;;;;;7.28;5.40;;;10.70;92.10;;;;;;5095262;27;20043;-61
2021/05/09 04:48:31;;;;;;;7.43;5.70;;;10.60;92.00;;;;;;5091144;28;20103;-60
2021/05/09 04:50:57;;;;;;;7.25;5.55;;;12.20;92.60;;;;;;5094961;28;20032;-61
2021/05/09 04:53:32;;;;;;;6.90;5.78;;;10.90;92.20;;;;;;5094348;28;20045;-61
2021/05/09 04:56:00;;;;;;;6.28;5.43;;;11.60;92.40;;;;;;5094044;28;20032;-62
2021/05/09 04:58:27;;;;;;;7.00;5.03;;;11.10;91.90;;;;;;5093793;28;20047;-60
2021/05/09 05:00:54;;;;;;;6.95;5.13;;;12.00;92.10;;;;;;5057401;28;20039;-61
2021/05/09 05:03:21;;;;;;;7.43;5.68;;;11.30;91.80;;;;;;5095854;28;20050;-61
2021/05/09 05:05:47;;;;;;;7.50;5.57;;;11.40;91.60;;;;;;5094342;28;20112;-60
2021/05/09 05:08:13;;;;;;;6.40;5.22;;;11.50;91.50;;;;;;5093585;28;20499;-60
2021/05/09 05:10:39;;;;;;;8.30;5.10;;;11.90;91.40;;;;;;5092328;28;20042;-60
2021/05/09 05:13:16;;;;;;;6.43;5.50;;;11.60;91.30;;;;;;5094258;28;20396;-61
2021/05/09 05:15:43;;;;;;;6.93;5.03;;;11.70;91.00;;;;;;5092578;28;20053;-61
2021/05/09 05:18:09;;;;;;;6.75;5.30;;;11.10;90.50;;;;;;5088726;28;20034;-61
2021/05/09 05:20:35;;;;;;;5.65;5.05;;;11.10;90.40;;;;;;5100020;28;20031;-60
2021/05/09 05:23:02;;;;;;;6.95;5.18;;;12.20;90.50;;;;;;5088449;28;20396;-61
2021/05/09 05:25:28;;;;;;;8.40;6.65;;;12.30;90.40;;;;;;5089082;28;20038;-61
2021/05/09 05:27:54;;;;;;;6.70;5.00;;;12.00;90.30;;;;;;5093356;28;20031;-61
2021/05/09 05:30:20;;;;;;;5.57;4.75;;;12.10;90.30;;;;;;5093897;28;20333;-62
2021/05/09 05:32:49;;;;;;;6.03;5.00;;;12.10;90.30;;;;;;5095394;28;20035;-62
2021/05/09 05:35:15;;;;;;;5.93;4.70;;;12.30;89.90;;;;;;5079921;28;20039;-61
2021/05/09 05:37:42;;;;;;;5.90;4.53;;;12.30;89.60;;;;;;5095296;28;20297;-61
2021/05/09 05:40:10;;;;;;;6.07;5.32;;;12.40;90.10;;;;;;5093809;28;20051;-61
2021/05/09 05:42:37;;;;;;;5.88;5.10;;;13.60;89.70;;;;;;5108830;27;20042;-62
2021/05/09 05:45:04;;;;;;;7.80;4.78;;;12.20;89.50;;;;;;5095306;28;20106;-61
2021/05/09 05:47:30;;;;;;;5.82;4.30;;;12.60;89.60;;;;;;5096717;28;20036;-60
2021/05/09 05:49:57;;;;;;;5.60;4.93;;;12.70;89.10;;;;;;5098282;28;20033;-60
2021/05/09 05:52:22;;;;;;;5.35;4.35;;;13.00;89.20;;;;;;5077489;28;20027;-62
2021/05/09 05:54:48;;;;;;;5.50;4.65;;;14.70;90.00;;;;;;5096600;28;20034;-61
2021/05/09 05:57:15;;;;;;;5.63;5.13;;;12.80;89.30;;;;;;5099439;28;20035;-60
2021/05/09 05:59:40;;;;;;;7.00;5.25;;;13.50;88.50;;;;;;5098432;28;20024;-60
2021/05/09 06:02:06;;;;;;;5.18;4.68;;;13.70;89.00;;;;;;5094689;28;20036;-61
2021/05/09 06:04:33;;;;;;;5.95;4.50;;;13.00;88.60;;;;;;5098756;28;20040;-61
2021/05/09 06:06:58;;;;;;;6.88;5.00;;;13.00;89.00;;;;;;5077452;28;20059;-61
2021/05/09 06:09:24;;;;;;;6.60;4.78;;;13.10;89.30;;;;;;5096854;28;20472;-61
2021/05/09 06:11:50;;;;;;;4.65;3.97;;;13.70;88.60;;;;;;5099889;28;20020;-62
2021/05/09 06:14:16;;;;;;;5.38;4.60;;;13.20;88.80;;;;;;5098032;28;20373;-61
2021/05/09 06:16:41;;;;;;;6.43;4.88;;;13.20;87.50;;;;;;5061671;28;23099;-62
2021/05/09 06:19:07;;;;;;;7.35;4.45;;;13.40;87.70;;;;;;5099019;28;20039;-62
2021/05/09 06:21:34;;;;;;;7.30;4.63;;;13.70;87.30;;;;;;5079907;28;20050;-62
2021/05/09 06:24:00;;;;;;;5.25;3.80;;;13.60;87.10;;;;;;5099683;28;20067;-62
2021/05/09 06:26:26;;;;;;;5.28;4.28;;;13.70;86.40;;;;;;5098479;28;20076;-62
2021/05/09 06:28:53;;;;;;;5.68;4.35;;;13.80;86.30;;;;;;5097839;28;20096;-62
2021/05/09 06:31:19;;;;;;;4.88;4.10;;;13.90;86.70;;;;;;5098403;28;20182;-61
2021/05/09 06:33:45;;;;;;;4.85;4.35;;;14.00;86.40;;;;;;5094207;28;20083;-61
2021/05/09 06:36:11;;;;;;;5.63;4.55;;;14.30;85.60;;;;;;5098853;28;20098;-61
2021/05/09 06:38:39;;;;;;;5.25;4.05;;;14.10;85.60;;;;;;5095592;28;20103;-62
2021/05/09 06:41:05;;;;;;;5.55;4.07;;;14.30;86.00;;;;;;5077191;28;20112;-61
2021/05/09 06:43:31;;;;;;;5.05;4.20;;;14.40;84.70;;;;;;5098335;28;20514;-61
2021/05/09 06:45:57;;;;;;;5.25;4.07;;;14.60;84.60;;;;;;5097621;28;20096;-61
2021/05/09 06:48:24;;;;;;;6.25;4.20;;;14.60;84.90;;;;;;5094088;28;20084;-61
2021/05/09 06:50:50;;;;;;;5.25;4.15;;;15.30;83.40;;;;;;5096034;28;20143;-61
2021/05/09 06:53:15;;;;;;;5.13;3.90;;;14.80;83.80;;;;;;5096605;28;20106;-62
2021/05/09 06:55:44;;;;;;;4.40;3.85;;;14.90;82.40;;;;;;5093108;28;20653;-62
2021/05/09 06:58:11;;;;;;;5.43;4.20;;;15.10;82.70;;;;;;5078023;28;20100;-63
2021/05/09 07:00:38;;;;;;;4.80;4.30;;;15.10;82.60;;;;;;5099343;28;20088;-61
2021/05/09 07:03:04;;;;;;;5.47;4.00;;;15.30;83.40;;;;;;5097472;28;20533;-60
2021/05/09 07:05:30;;;;;;;5.25;3.58;;;15.40;82.20;;;;;;5098693;28;20099;-61
2021/05/09 07:07:57;;;;;;;4.90;3.78;;;15.60;80.40;;;;;;5078597;28;20096;-61
2021/05/09 07:10:27;;;;;;;5.07;4.32;;;15.50;81.10;;;;;;5099638;27;20058;-61
2021/05/09 07:12:56;;;;;;;4.70;3.85;;;15.70;81.40;;;;;;5099067;27;20104;-61
2021/05/09 07:15:42;;;;;;;5.85;3.65;;;15.80;80.50;;;;;;5078395;28;20255;-61
2021/05/09 07:18:19;;;;;;;4.97;4.00;;;16.40;78.60;;;;;;5094660;28;21216;-61
2021/05/09 07:20:50;;;;;;;5.45;3.67;;;16.40;79.90;;;;;;5098135;28;20096;-61
2021/05/09 07:23:16;;;;;;;5.18;3.95;;;17.00;75.50;;;;;;5097137;28;20123;-62
2021/05/09 07:25:42;;;;;;;5.20;4.65;;;17.50;76.00;;;;;;5077090;28;20545;-61
2021/05/09 07:28:14;;;;;;;4.07;3.67;;;17.80;74.10;;;;;;5099607;28;20089;-61
2021/05/09 07:30:41;;;;;;;4.43;3.38;;;18.00;72.40;;;;;;5100410;28;20084;-61
2021/05/09 07:33:08;;;;;;;4.53;3.45;;;18.10;72.50;;;;;;5099717;28;20560;-60
2021/05/09 07:35:34;;;;;;;4.60;3.60;;;18.10;72.50;;;;;;5097283;28;20080;-61
2021/05/09 07:38:07;;;;;;;4.20;3.15;;;18.10;73.10;;;;;;5100840;28;20119;-60
2021/05/09 07:40:34;;;;;;;4.63;3.65;;;18.00;71.70;;;;;;5077299;28;20131;-61
2021/05/09 07:43:00;;;;;;;4.63;3.40;;;18.00;71.30;;;;;;5097382;28;20129;-64
2021/05/09 07:45:26;;;;;;;5.30;3.33;;;18.00;70.90;;;;;;5099472;28;20536;-62
2021/05/09 07:47:52;;;;;;;4.32;3.47;;;18.00;71.60;;;;;;5099008;28;20122;-62
2021/05/09 07:50:19;;;;;;;4.15;3.20;;;18.10;68.70;;;;;;5099510;28;20105;-61
2021/05/09 07:52:47;;;;;;;5.55;3.40;;;17.60;68.10;;;;;;5098007;28;20099;-62
2021/05/09 07:55:14;;;;;;;5.97;3.25;;;18.30;69.80;;;;;;5099586;28;20101;-62
2021/05/09 07:57:41;;;;;;;4.70;3.30;;;18.50;70.90;;;;;;5095589;28;20047;-65
2021/05/09 08:00:11;;;;;;;4.78;3.13;;;18.70;66.90;;;;;;5098891;28;20032;-61
2021/05/09 08:02:37;;;;;;;4.35;3.10;;;19.10;69.80;;;;;;5098153;28;20232;-60
2021/05/09 08:05:03;;;;;;;4.35;3.10;;;19.30;68.90;;;;;;5100267;28;20624;-61
2021/05/09 08:07:29;;;;;;;4.40;2.85;;;19.50;65.30;;;;;;5099767;28;20386;-61
2021/05/09 08:09:55;;;;;;;3.80;2.90;;;19.60;67.30;;;;;;5097593;28;20063;-61
2021/05/09 08:12:21;;;;;;;3.97;3.00;;;19.70;65.40;;;;;;5079752;28;20079;-62
2021/05/09 08:14:48;;;;;;;3.92;3.47;;;19.90;66.90;;;;;;5098184;28;20055;-61
2021/05/09 08:17:15;;;;;;;4.22;3.33;;;20.70;64.10;;;;;;5095471;28;20066;-61
2021/05/09 08:19:41;;;;;;;4.13;3.50;;;20.60;67.70;;;;;;5106964;28;20095;-61
2021/05/09 08:22:07;;;;;;;3.80;2.97;;;20.10;61.90;;;;;;5106097;28;20539;-62
2021/05/09 08:24:33;;;;;;;3.58;3.00;;;21.10;66.10;;;;;;5109368;28;20114;-64
2021/05/09 08:26:59;;;;;;;3.65;2.97;;;21.30;65.60;;;;;;5107140;28;20091;-63
2021/05/09 08:29:25;;;;;;;3.92;2.88;;;21.40;63.60;;;;;;5104869;28;20100;-63
2021/05/09 08:31:51;;;;;;;3.70;2.90;;;21.60;62.50;;;;;;5106628;28;20104;-63
2021/05/09 08:34:17;;;;;;;5.22;2.80;;;21.80;64.50;;;;;;5091343;28;20532;-63
2021/05/09 08:36:43;;;;;;;3.60;2.97;;;22.00;60.30;;;;;;5090962;28;20560;-63
2021/05/09 08:39:09;;;;;;;4.13;2.78;;;22.10;55.90;;;;;;5094572;28;20066;-63
2021/05/09 08:45:20;;;;;;;3.97;2.92;;;22.30;59.80;;;;;;5046142;28;20120;-63
2021/05/09 08:47:47;;;;;;;3.58;2.65;;;22.50;55.00;;;;;;5093297;28;20032;-63
2021/05/09 08:50:18;;;;;;;3.50;2.47;;;22.50;57.30;;;;;;5109081;28;20035;-63
2021/05/09 08:52:46;;;;;;;5.18;3.67;;;22.60;57.80;;;;;;5103316;28;20095;-63
2021/05/09 08:55:21;;;;;;;4.03;2.70;;;22.70;59.40;;;;;;5099087;28;20039;-63
2021/05/09 08:57:47;;;;;;;3.95;2.83;;;22.90;58.50;;;;;;5104323;28;20044;-63
2021/05/09 09:00:15;;;;;;;4.32;3.22;;;23.10;59.80;;;;;;5098024;28;20091;-63
2021/05/09 09:02:41;;;;;;;3.95;3.08;;;23.30;58.90;;;;;;5100551;28;20096;-64
2021/05/09 09:05:08;;;;;;;4.53;2.92;;;23.50;54.20;;;;;;5088307;28;20103;-63
2021/05/09 09:07:49;;;;;;;4.53;2.75;;;23.50;57.30;;;;;;5101238;28;20572;-64
2021/05/09 09:10:50;;;;;;;4.57;2.50;;;23.60;56.30;;;;;;5103663;28;20084;-64
2021/05/09 09:13:33;;;;;;;3.80;2.60;;;23.60;53.60;;;;;;5108505;28;20091;-64
2021/05/09 09:15:59;;;;;;;3.67;2.53;;;23.70;55.60;;;;;;5109273;28;20091;-63
2021/05/09 09:18:34;;;;;;;4.45;3.13;;;23.80;57.40;;;;;;5108220;28;20601;-64
2021/05/09 09:21:39;;;;;;;3.40;2.30;;;23.90;56.30;;;;;;5107910;28;20092;-64
2021/05/09 09:24:10;;;;;;;4.68;2.30;;;23.90;54.20;;;;;;5035756;28;20188;-63
2021/05/09 09:26:48;;;;;;;3.50;2.67;;;23.80;53.60;;;;;;5046830;28;20180;-64
2021/05/09 09:29:32;;;;;;;2.80;2.30;;;24.00;54.70;;;;;;5071259;28;20108;-63
2021/05/09 09:32:02;;;;;;;2.92;2.22;;;24.10;51.20;;;;;;5105740;28;20084;-63
2021/05/09 09:34:54;;;;;;;3.70;2.10;;;24.10;54.10;;;;;;5108505;28;20107;-64
2021/05/09 09:37:20;;;;;;;3.53;2.22;;;24.20;53.60;;;;;;5075225;28;20104;-64
2021/05/09 09:40:01;;;;;;;2.70;2.03;;;24.00;48.40;;;;;;5103155;28;20115;-63
2021/05/09 09:42:41;;;;;;;2.60;1.95;;;23.90;49.20;;;;;;5095682;28;20098;-63
2021/05/09 09:45:17;;;;;;;3.30;2.13;;;23.90;52.00;;;;;;5107939;28;20188;-63
2021/05/09 09:48:03;;;;;;;4.38;2.40;;;23.70;50.30;;;;;;5104388;28;20177;-63
2021/05/09 09:50:41;;;;;;;2.85;2.20;;;24.20;48.80;;;;;;5100605;28;20096;-64
2021/05/09 09:53:42;;;;;;;2.75;2.00;;;23.40;50.50;;;;;;5101599;28;20087;-64
2021/05/09 09:56:15;;;;;;;3.80;2.13;;;23.40;47.90;;;;;;5108607;28;20028;-64
2021/05/09 09:58:50;;;;;;;2.80;2.10;;;22.90;48.10;;;;;;5103175;28;20050;-63
2021/05/09 10:01:36;;;;;;;2.83;2.03;;;22.60;50.70;;;;;;5088391;28;20082;-63
2021/05/09 10:04:07;;;;;;;3.03;2.25;;;22.20;51.00;;;;;;5101343;28;20408;-63
2021/05/09 10:06:34;;;;;;;3.10;2.13;;;22.10;52.30;;;;;;5107571;28;20039;-63
2021/05/09 10:09:01;;;;;;;3.85;2.20;;;21.90;54.80;;;;;;5109902;28;20036;-62
2021/05/09 10:11:28;;;;;;;3.33;2.22;;;21.80;55.70;;;;;;5107410;28;20036;-63
2021/05/09 10:13:55;;;;;;;3.60;2.20;;;21.70;55.40;;;;;;5097098;28;20059;-63
2021/05/09 10:16:27;;;;;;;4.13;2.30;;;21.70;55.70;;;;;;5105028;28;20036;-62
2021/05/09 10:18:59;;;;;;;2.70;2.10;;;21.60;56.20;;;;;;5099175;28;20040;-62
2021/05/09 10:21:35;;;;;;;2.67;2.13;;;21.70;58.70;;;;;;5103946;28;20036;-62
2021/05/09 10:24:07;;;;;;;3.95;2.38;;;21.80;59.00;;;;;;5109902;28;20104;-63
2021/05/09 10:26:42;;;;;;;3.67;2.33;;;21.80;58.90;;;;;;5109871;28;20463;-62
2021/05/09 10:29:07;;;;;;;3.50;2.22;;;21.80;59.70;;;;;;5109630;28;20031;-63
2021/05/09 10:31:34;;;;;;;2.72;2.30;;;22.00;59.80;;;;;;5108262;28;20032;-63
2021/05/09 10:34:00;;;;;;;4.70;2.08;;;22.10;60.50;;;;;;5108753;28;20050;-63
2021/05/09 10:36:25;;;;;;;6.30;2.00;;;22.20;61.30;;;;;;5089944;28;20035;-64
2021/05/09 10:39:15;;;;;;;3.70;2.30;;;22.30;61.00;;;;;;5109508;28;20028;-64
2021/05/09 10:41:56;;;;;;;3.03;2.00;;;22.30;57.90;;;;;;5111254;28;20044;-64
2021/05/09 10:44:37;;;;;;;2.85;1.90;;;22.30;54.50;;;;;;5103147;28;20050;-64
2021/05/09 10:47:17;;;;;;;3.42;2.10;;;22.40;56.30;;;;;;5110175;28;20050;-63
2021/05/09 10:50:14;;;;;;;2.90;2.25;;;22.50;59.30;;;;;;5111779;28;20119;-63
2021/05/09 10:52:44;;;;;;;2.80;1.90;;;22.40;55.70;;;;;;5110241;28;20035;-64
2021/05/09 10:55:45;;;;;;;3.70;1.92;;;22.90;57.70;;;;;;5110816;28;20091;-64
2021/05/09 10:58:17;;;;;;;3.28;2.10;;;23.30;52.20;;;;;;5099934;28;20488;-64
2021/05/09 11:00:58;;;;;;;2.60;1.65;;;24.70;51.40;;;;;;5110793;28;20091;-64
2021/05/09 11:03:36;;;;;;;2.97;1.70;;;24.10;52.60;;;;;;5102582;28;20161;-64
2021/05/09 11:06:16;;;;;;;3.47;1.90;;;24.50;49.50;;;;;;5104349;28;20091;-64
2021/05/09 11:08:41;;;;;;;2.90;1.90;;;24.80;47.50;;;;;;5106644;28;20172;-63
2021/05/09 11:11:13;;;;;;;2.60;1.90;;;24.90;49.50;;;;;;5092828;28;20149;-62
2021/05/09 11:14:07;;;;;;;2.17;1.75;;;25.20;49.60;;;;;;5099039;28;20094;-62
2021/05/09 11:16:40;;;;;;;2.92;1.80;;;25.40;44.30;;;;;;5081070;28;20103;-63
2021/05/09 11:19:10;;;;;;;2.75;1.80;;;25.60;47.20;;;;;;5093992;28;20099;-63
2021/05/09 11:21:37;;;;;;;2.65;1.85;;;25.70;46.90;;;;;;5110652;28;20080;-62
2021/05/09 11:24:08;;;;;;;4.60;1.90;;;26.10;45.60;;;;;;5111870;28;20599;-62
2021/05/09 11:26:37;;;;;;;3.55;2.00;;;25.90;44.30;;;;;;5091259;28;20712;-62
2021/05/09 11:29:16;;;;;;;2.58;1.67;;;25.90;43.70;;;;;;5108764;28;20099;-62
2021/05/09 11:31:44;;;;;;;2.45;1.80;;;25.80;44.80;;;;;;5109703;28;20096;-62
2021/05/09 11:34:11;;;;;;;2.75;1.90;;;25.60;44.10;;;;;;5112173;28;20095;-62
2021/05/09 11:36:39;;;;;;;2.53;1.63;;;25.50;44.80;;;;;;5103484;28;20147;-63
2021/05/09 11:39:11;;;;;;;3.45;1.85;;;25.50;45.80;;;;;;5110949;28;20088;-62
2021/05/09 11:42:02;;;;;;;4.15;2.00;;;25.40;47.00;;;;;;5109796;28;20095;-63
2021/05/09 11:44:42;;;;;;;2.00;1.70;;;25.60;45.60;;;;;;5081437;28;20169;-63
2021/05/09 11:47:12;;;;;;;;;;;25.50;43.60;;;;;;5099379;28;20092;-62
2021/05/09 11:49:43;;;;;;;3.85;1.90;;;25.60;44.20;;;;;;5091850;28;19999;-63
2021/05/09 11:52:22;;;;;;;3.30;1.85;;;25.80;46.20;;;;;;5109831;28;20116;-63
2021/05/09 11:54:54;;;;;;;2.83;1.83;;;26.80;46.00;;;;;;5108421;28;20541;-64
2021/05/09 11:57:23;;;;;;;2.45;1.70;;;26.20;47.00;;;;;;5110211;28;20428;-63
2021/05/09 11:59:57;;;;;;;2.65;1.67;;;26.30;45.30;;;;;;5109812;28;20096;-63
2021/05/09 12:02:24;;;;;;;2.75;2.00;;;25.60;42.10;;;;;;5089963;28;20095;-62
2021/05/09 12:04:59;;;;;;;3.08;2.00;;;26.20;44.80;;;;;;5098426;28;20095;-62
2021/05/09 12:07:28;;;;;;;3.88;2.05;;;26.10;45.00;;;;;;5097594;28;20650;-63
2021/05/09 12:09:55;;;;;;;;;;;26.10;45.60;;;;;;5107266;28;20090;-63
2021/05/09 12:12:22;;;;;;;2.92;1.80;;;26.10;43.40;;;;;;5110961;28;19972;-63
2021/05/09 12:14:52;;;;;;;2.50;1.83;;;26.10;45.40;;;;;;5108230;28;20557;-63
2021/05/09 12:17:23;;;;;;;2.30;1.70;;;26.20;45.40;;;;;;5111158;28;20200;-63
2021/05/09 12:19:49;;;;;;;3.08;1.70;;;26.30;45.80;;;;;;5091062;28;20893;-63
2021/05/09 12:22:15;;;;;;;3.35;2.00;;;26.30;45.70;;;;;;5092512;28;20175;-63
2021/05/09 12:24:57;;;;;;;2.20;1.85;;;25.90;43.50;;;;;;5106441;28;20138;-63
2021/05/09 12:27:26;;;;;;;2.60;1.80;;;26.10;44.40;;;;;;5099431;28;20209;-63
2021/05/09 12:29:54;;;;;;;2.70;1.80;;;26.10;45.10;;;;;;5107787;28;20133;-63
2021/05/09 12:32:31;;;;;;;2.85;1.70;;;25.90;44.50;;;;;;5089682;28;20092;-63
2021/05/09 12:35:16;;;;;;;4.43;1.90;;;25.80;46.20;;;;;;5096681;28;20607;-62
2021/05/09 12:37:42;;;;;;;2.50;1.70;;;25.90;46.10;;;;;;5102063;28;20159;-63
2021/05/09 12:40:24;;;;;;;2.40;1.90;;;25.90;47.50;;;;;;5101035;28;20124;-60
2021/05/09 12:42:57;;;;;;;2.75;1.80;;;26.30;45.90;;;;;;5098661;28;20115;-61
2021/05/09 12:45:29;;;;;;;3.05;1.73;;;25.90;48.00;;;;;;5107482;28;20100;-61
2021/05/09 12:48:14;;;;;;;2.95;1.90;;;25.80;47.70;;;;;;5092156;28;20552;-62
2021/05/09 12:51:04;;;;;;;2.60;1.90;;;25.60;47.90;;;;;;5103861;28;20080;-60
2021/05/09 12:53:41;;;;;;;2.90;2.00;;;25.50;49.20;;;;;;5104272;28;20549;-60
2021/05/09 12:56:25;;;;;;;3.47;2.53;;;25.50;49.20;;;;;;5100155;28;20240;-61
2021/05/09 12:59:16;;;;;;;3.75;1.90;;;25.60;50.70;;;;;;5084191;28;20087;-60
2021/05/09 13:01:59;;;;;;;3.28;1.90;;;25.50;48.00;;;;;;5103412;28;20107;-62
2021/05/09 13:04:36;;;;;;;3.72;1.98;;;25.90;50.10;;;;;;5104095;28;20107;-60